createdAt,value
2019-05-28T00:02:14.849Z,2.27
2019-05-28T00:04:45.304Z,2.30
2019-05-28T00:07:15.775Z,2.30
2019-05-28T00:09:47.301Z,2.27
2019-05-28T00:12:17.851Z,2.17
2019-05-28T00:14:48.499Z,2.20
2019-05-28T00:17:18.894Z,1.70
2019-05-28T00:19:49.335Z,2.13
2019-05-28T00:22:22.823Z,2.13
2019-05-28T00:24:55.507Z,2.00
2019-05-28T00:27:26.086Z,2.13
2019-05-28T00:29:56.701Z,2.03
2019-05-28T00:32:27.138Z,1.63
2019-05-28T00:34:58.920Z,2.10
2019-05-28T00:37:29.391Z,2.00
2019-05-28T00:40:02.490Z,2.00
2019-05-28T00:42:31.954Z,1.80
2019-05-28T00:45:03.433Z,1.90
2019-05-28T00:47:33.920Z,1.93
2019-05-28T00:50:05.574Z,2.07
2019-05-28T00:52:36.204Z,2.13
2019-05-28T00:55:07.325Z,2.00
2019-05-28T00:57:42.481Z,2.07
2019-05-28T01:00:14.136Z,1.90
2019-05-28T01:02:44.625Z,2.03
2019-05-28T01:05:15.272Z,1.90
2019-05-28T01:07:45.699Z,1.70
2019-05-28T01:10:16.185Z,2.17
2019-05-28T01:12:46.560Z,1.80
2019-05-28T01:15:17.116Z,1.47
2019-05-28T01:17:47.460Z,0.87
2019-05-28T01:20:19.135Z,1.00
2019-05-28T01:22:49.641Z,0.67
2019-05-28T01:25:20.046Z,0.83
2019-05-28T01:27:50.472Z,0.50
2019-05-28T01:30:21.038Z,0.97
2019-05-28T01:32:51.496Z,0.70
2019-05-28T01:35:21.912Z,0.60
2019-05-28T01:37:52.331Z,0.70
2019-05-28T01:40:33.356Z,0.60
2019-05-28T01:43:04.429Z,0.60
2019-05-28T01:45:34.885Z,0.60
2019-05-28T01:48:05.606Z,0.40
2019-05-28T01:50:36.026Z,0.90
2019-05-28T01:53:06.535Z,0.90
2019-05-28T01:55:37.619Z,0.80
2019-05-28T01:58:08.054Z,0.70
2019-05-28T02:00:38.548Z,0.67
2019-05-28T02:03:09.171Z,0.90
2019-05-28T02:05:41.884Z,0.70
2019-05-28T02:08:12.311Z,0.87
2019-05-28T02:10:43.953Z,0.70
2019-05-28T02:13:14.424Z,0.77
2019-05-28T02:15:46.355Z,0.73
2019-05-28T02:18:16.837Z,0.63
2019-05-28T02:20:49.600Z,0.90
2019-05-28T02:23:20.038Z,0.87
2019-05-28T02:25:50.421Z,1.40
2019-05-28T02:28:21.561Z,1.00
2019-05-28T02:30:51.953Z,0.80
2019-05-28T02:33:22.422Z,0.83
2019-05-28T02:35:52.825Z,0.87
2019-05-28T02:38:23.435Z,1.00
2019-05-28T02:40:53.945Z,1.20
2019-05-28T02:43:24.512Z,1.10
2019-05-28T02:45:55.064Z,1.20
2019-05-28T02:48:25.480Z,1.30
2019-05-28T02:51:04.742Z,1.03
2019-05-28T02:53:35.256Z,1.10
2019-05-28T02:56:05.907Z,1.30
2019-05-28T02:58:37.422Z,0.90
2019-05-28T03:01:08.405Z,0.87
2019-05-28T03:03:40.326Z,1.00
2019-05-28T03:06:13.751Z,0.97
2019-05-28T03:08:47.127Z,1.10
2019-05-28T03:11:17.556Z,0.87
2019-05-28T03:13:47.935Z,1.00
2019-05-28T03:16:21.328Z,0.90
2019-05-28T03:18:53.741Z,1.07
2019-05-28T03:21:26.617Z,1.20
2019-05-28T03:24:00.877Z,0.77
2019-05-28T03:26:31.307Z,1.60
2019-05-28T03:29:04.300Z,1.80
2019-05-28T03:31:36.878Z,1.83
2019-05-28T03:34:07.480Z,1.90
2019-05-28T03:36:38.681Z,1.63
2019-05-28T03:39:10.145Z,1.80
2019-05-28T03:41:40.650Z,1.60
2019-05-28T03:44:13.716Z,1.83
2019-05-28T03:46:44.171Z,2.10
2019-05-28T03:49:14.608Z,2.10
2019-05-28T03:51:45.093Z,2.20
2019-05-28T03:54:17.568Z,2.40
2019-05-28T03:56:48.077Z,2.30
2019-05-28T03:59:19.576Z,2.30
2019-05-28T04:01:49.935Z,2.37
2019-05-28T04:04:20.311Z,2.30
2019-05-28T04:06:52.011Z,2.00
2019-05-28T04:09:24.928Z,2.57
2019-05-28T04:11:55.392Z,2.50
2019-05-28T04:14:25.862Z,2.70
2019-05-28T04:16:56.245Z,2.53
2019-05-28T04:19:26.692Z,2.77
2019-05-28T04:21:58.617Z,2.90
2019-05-28T04:24:29.093Z,3.00
2019-05-28T04:26:59.521Z,2.87
2019-05-28T04:29:29.957Z,2.77
2019-05-28T04:32:00.367Z,3.30
2019-05-28T04:34:30.923Z,3.60
2019-05-28T04:37:03.608Z,3.77
2019-05-28T04:39:35.454Z,3.00
2019-05-28T04:42:06.030Z,4.07
2019-05-28T04:47:12.376Z,3.57
2019-05-28T04:49:42.796Z,3.70
2019-05-28T04:52:13.225Z,3.30
2019-05-28T04:54:43.673Z,3.53
2019-05-28T04:57:14.157Z,4.00
2019-05-28T04:59:44.593Z,3.80
2019-05-28T05:02:15.092Z,3.77
2019-05-28T05:04:45.678Z,4.10
2019-05-28T05:07:16.087Z,3.80
2019-05-28T05:09:46.503Z,4.30
2019-05-28T05:12:16.931Z,4.47
2019-05-28T05:14:47.342Z,4.60
2019-05-28T05:17:17.777Z,4.53
2019-05-28T05:19:48.297Z,4.07
2019-05-28T05:22:18.715Z,3.40
2019-05-28T05:24:49.202Z,4.37
2019-05-28T05:27:19.756Z,4.33
2019-05-28T05:29:50.145Z,4.20
2019-05-28T05:32:20.683Z,4.07
2019-05-28T05:34:51.180Z,4.07
2019-05-28T05:37:21.575Z,3.30
2019-05-28T05:39:52.051Z,4.33
2019-05-28T05:42:22.562Z,4.07
2019-05-28T05:44:53.060Z,3.67
2019-05-28T05:47:23.548Z,3.67
2019-05-28T05:49:54.011Z,3.77
2019-05-28T06:05:14.368Z,4.40
2019-05-28T06:07:44.810Z,3.50
2019-05-28T06:10:15.466Z,3.53
2019-05-28T06:12:45.867Z,3.37
2019-05-28T06:15:16.867Z,3.53
2019-05-28T06:17:47.328Z,4.00
2019-05-28T06:20:18.542Z,2.90
2019-05-28T06:22:49.111Z,3.30
2019-05-28T06:25:19.751Z,3.40
2019-05-28T06:27:50.276Z,3.20
2019-05-28T06:30:21.172Z,3.10
2019-05-28T06:32:51.932Z,3.20
2019-05-28T06:35:22.363Z,3.20
2019-05-28T06:37:52.793Z,3.43
2019-05-28T06:40:25.866Z,2.97
2019-05-28T06:42:56.652Z,3.40
2019-05-28T06:45:27.374Z,3.20
2019-05-28T06:47:59.400Z,2.87
2019-05-28T06:50:29.863Z,3.00
2019-05-28T06:53:00.260Z,2.63
2019-05-28T06:55:30.737Z,2.23
2019-05-28T06:58:02.153Z,2.70
2019-05-28T07:00:32.663Z,2.63
2019-05-28T07:03:03.109Z,2.87
2019-05-28T07:05:33.761Z,2.90
2019-05-28T07:08:04.307Z,2.80
2019-05-28T07:10:34.704Z,2.67
2019-05-28T07:13:05.443Z,2.83
2019-05-28T07:15:35.902Z,2.40
2019-05-28T07:18:06.351Z,2.50
2019-05-28T07:20:36.786Z,2.90
2019-05-28T07:23:07.224Z,2.63
2019-05-28T07:25:37.725Z,2.87
2019-05-28T07:28:11.555Z,2.63
2019-05-28T07:30:40.338Z,2.60
2019-05-28T07:33:12.850Z,3.20
2019-05-28T07:35:46.114Z,2.43
2019-05-28T07:38:15.223Z,2.63
2019-05-28T07:40:45.799Z,2.43
2019-05-28T07:43:16.302Z,2.17
2019-05-28T07:45:47.023Z,1.97
2019-05-28T07:48:17.592Z,2.40
2019-05-28T07:50:47.998Z,2.50
2019-05-28T07:53:18.473Z,2.37
2019-05-28T07:55:48.968Z,2.60
2019-05-28T07:58:19.439Z,3.00
2019-05-28T08:00:50.167Z,2.60
2019-05-28T08:03:20.825Z,2.37
2019-05-28T08:05:51.421Z,2.60
2019-05-28T08:08:22.753Z,2.93
2019-05-28T08:10:53.197Z,2.37
2019-05-28T08:13:39.590Z,2.80
2019-05-28T08:16:16.536Z,2.90
2019-05-28T08:18:29.436Z,2.80
2019-05-28T08:20:59.828Z,2.83
2019-05-28T08:23:31.648Z,2.57
2019-05-28T08:26:03.235Z,2.33
2019-05-28T08:28:33.658Z,2.70
2019-05-28T08:31:14.591Z,2.60
2019-05-28T08:33:36.341Z,2.43
2019-05-28T08:36:06.868Z,2.80
2019-05-28T08:38:37.104Z,2.03
2019-05-28T08:41:08.597Z,3.00
2019-05-28T08:43:41.067Z,2.77
2019-05-28T08:46:11.403Z,2.53
2019-05-28T08:48:41.963Z,2.03
2019-05-28T08:51:12.413Z,2.40
2019-05-28T08:53:42.758Z,2.63
2019-05-28T08:56:13.223Z,2.30
2019-05-28T08:58:43.613Z,2.13
2019-05-28T09:01:14.430Z,1.93
2019-05-28T09:03:46.027Z,2.23
2019-05-28T09:06:16.262Z,2.50
2019-05-28T09:08:48.641Z,2.73
2019-05-28T09:11:19.108Z,2.50
2019-05-28T09:13:49.650Z,2.70
2019-05-28T09:16:20.185Z,2.53
2019-05-28T09:18:50.752Z,2.63
2019-05-28T09:21:21.235Z,2.10
2019-05-28T09:23:52.790Z,1.90
2019-05-28T09:26:23.251Z,1.90
2019-05-28T09:28:53.637Z,1.90
2019-05-28T09:31:25.760Z,2.20
2019-05-28T09:33:56.543Z,2.20
2019-05-28T09:36:27.273Z,2.00
2019-05-28T09:39:07.537Z,1.83
2019-05-28T09:41:38.215Z,1.90
2019-05-28T09:44:08.631Z,1.70
2019-05-28T09:46:40.194Z,1.93
2019-05-28T09:49:10.681Z,1.87
2019-05-28T09:51:41.027Z,1.80
2019-05-28T09:54:11.411Z,1.70
2019-05-28T09:56:41.923Z,2.00
2019-05-28T09:59:12.403Z,2.13
2019-05-28T10:01:42.988Z,1.97
2019-05-28T10:04:13.821Z,2.03
2019-05-28T10:06:44.268Z,2.13
2019-05-28T10:09:14.769Z,1.90
2019-05-28T10:11:45.234Z,2.07
2019-05-28T10:14:15.740Z,1.87
2019-05-28T10:16:46.196Z,2.33
2019-05-28T10:19:17.034Z,2.30
2019-05-28T10:21:48.248Z,1.97
2019-05-28T10:24:21.661Z,1.60
2019-05-28T10:26:53.262Z,1.73
2019-05-28T10:29:23.744Z,1.83
2019-05-28T10:31:56.172Z,1.87
2019-05-28T10:34:27.258Z,1.70
2019-05-28T10:36:57.803Z,1.87
2019-05-28T10:39:28.343Z,1.77
2019-05-28T10:41:58.922Z,1.67
2019-05-28T10:44:29.308Z,1.83
2019-05-28T10:46:59.883Z,1.50
2019-05-28T10:49:30.388Z,2.07
2019-05-28T10:52:01.021Z,1.77
2019-05-28T10:54:31.639Z,2.00
2019-05-28T10:57:02.207Z,2.00
2019-05-28T10:59:34.195Z,2.07
2019-05-28T11:02:05.131Z,1.90
2019-05-28T11:04:35.982Z,1.80
2019-05-28T11:07:06.607Z,1.63
2019-05-28T11:09:37.103Z,1.77
2019-05-28T11:12:08.833Z,1.93
2019-05-28T11:14:39.748Z,1.60
2019-05-28T11:17:10.226Z,1.90
2019-05-28T11:19:40.862Z,1.60
2019-05-28T11:22:12.951Z,1.80
2019-05-28T11:24:43.405Z,2.20
2019-05-28T11:27:27.705Z,1.60
2019-05-28T11:29:58.348Z,1.73
2019-05-28T11:32:28.990Z,1.60
2019-05-28T11:34:59.374Z,1.30
2019-05-28T11:37:29.809Z,1.10
2019-05-28T11:40:00.299Z,1.17
2019-05-28T11:42:30.749Z,1.20
2019-05-28T11:45:01.561Z,1.40
2019-05-28T11:47:32.348Z,1.50
2019-05-28T11:53:29.543Z,1.37
2019-05-28T12:01:59.131Z,1.30
2019-05-28T12:04:29.586Z,1.20
2019-05-28T12:07:00.578Z,1.40
2019-05-28T12:09:31.150Z,1.27
2019-05-28T12:12:01.739Z,1.40
2019-05-28T12:14:32.217Z,1.40
2019-05-28T12:17:02.688Z,1.47
2019-05-28T12:19:33.110Z,1.30
2019-05-28T12:22:03.797Z,1.40
2019-05-28T12:24:34.311Z,1.40
2019-05-28T12:29:54.665Z,1.73
2019-05-28T12:32:25.128Z,1.30
2019-05-28T12:34:55.656Z,1.10
2019-05-28T12:37:45.682Z,1.13
2019-05-28T12:39:58.276Z,1.40
2019-05-28T12:42:28.778Z,1.30
2019-05-28T12:45:09.446Z,1.30
2019-05-28T12:47:31.493Z,1.40
2019-05-28T12:50:18.158Z,1.20
2019-05-28T12:52:34.123Z,1.10
2019-05-28T12:55:04.905Z,1.40
2019-05-28T12:57:35.412Z,1.10
2019-05-28T13:00:07.191Z,1.43
2019-05-28T13:02:38.293Z,1.20
2019-05-28T13:05:27.462Z,1.10
2019-05-28T13:08:08.545Z,1.17
2019-05-28T13:10:30.298Z,1.00
2019-05-28T13:13:00.818Z,1.10
2019-05-28T13:15:31.298Z,1.20
2019-05-28T13:18:01.749Z,1.17
2019-05-28T13:20:32.288Z,1.00
2019-05-28T13:23:02.806Z,1.17
2019-05-28T13:25:33.407Z,1.00
2019-05-28T13:28:03.976Z,1.27
2019-05-28T13:30:34.396Z,1.40
2019-05-28T13:33:05.025Z,1.30
2019-05-28T13:35:35.488Z,1.10
2019-05-28T13:38:23.494Z,1.23
2019-05-28T13:40:38.203Z,1.27
2019-05-28T13:43:08.657Z,0.93
2019-05-28T13:45:39.168Z,1.30
2019-05-28T13:48:09.751Z,1.13
2019-05-28T13:50:40.124Z,1.50
2019-05-28T13:53:10.671Z,1.20
2019-05-28T13:55:41.191Z,1.50
2019-05-28T13:58:12.105Z,1.77
2019-05-28T14:00:42.807Z,1.70
2019-05-28T14:03:13.487Z,1.40
2019-05-28T14:05:43.972Z,1.47
2019-05-28T14:08:14.471Z,1.30
2019-05-28T14:10:45.020Z,1.40
2019-05-28T14:13:16.698Z,1.30
2019-05-28T14:15:47.152Z,1.10
2019-05-28T14:18:20.189Z,4.57
2019-05-28T14:20:50.623Z,1.77
2019-05-28T14:23:21.153Z,1.80
2019-05-28T14:25:51.638Z,2.00
2019-05-28T14:28:23.206Z,1.47
2019-05-28T14:30:59.755Z,2.00
2019-05-28T14:33:25.868Z,2.10
2019-05-28T14:35:56.353Z,1.90
2019-05-28T14:38:27.961Z,1.73
2019-05-28T14:40:59.031Z,1.70
2019-05-28T14:43:30.271Z,2.00
2019-05-28T14:46:00.746Z,2.40
2019-05-28T14:48:31.288Z,1.70
2019-05-28T14:51:01.756Z,1.70
2019-05-28T14:53:32.192Z,1.93
2019-05-28T14:56:02.606Z,1.93
2019-05-28T14:58:33.096Z,1.87
2019-05-28T15:01:03.491Z,1.87
2019-05-28T15:03:34.711Z,1.40
2019-05-28T15:06:05.691Z,1.40
2019-05-28T15:08:36.152Z,1.20
2019-05-28T15:11:06.601Z,1.50
2019-05-28T15:13:37.003Z,1.40
2019-05-28T15:16:07.404Z,1.33
2019-05-28T15:18:37.937Z,1.37
2019-05-28T15:21:08.468Z,1.40
2019-05-28T15:23:39.078Z,1.30
2019-05-28T15:26:09.606Z,1.40
2019-05-28T15:28:40.207Z,1.50
2019-05-28T15:31:10.727Z,1.50
2019-05-28T15:33:41.178Z,1.43
2019-05-28T15:36:11.608Z,1.60
2019-05-28T15:38:42.072Z,1.30
2019-05-28T15:41:12.867Z,1.30
2019-05-28T15:43:43.478Z,1.60
2019-05-28T15:46:14.043Z,1.73
2019-05-28T15:48:45.543Z,1.60
2019-05-28T15:51:16.068Z,1.60
2019-05-28T15:53:46.686Z,1.60
2019-05-28T15:56:17.331Z,1.50
2019-05-28T15:58:47.856Z,1.50
2019-05-28T16:01:18.443Z,1.40
2019-05-28T16:03:48.927Z,1.23
2019-05-28T16:06:19.432Z,1.10
2019-05-28T16:08:50.023Z,1.20
2019-05-28T16:11:20.458Z,1.10
2019-05-28T16:13:50.889Z,1.10
2019-05-28T16:16:21.459Z,1.10
2019-05-28T16:18:51.913Z,1.20
2019-05-28T16:21:22.342Z,1.27
2019-05-28T16:23:53.127Z,1.23
2019-05-28T16:26:23.618Z,1.20
2019-05-28T16:28:54.046Z,1.27
2019-05-28T16:31:24.917Z,1.20
2019-05-28T16:33:55.357Z,1.50
2019-05-28T16:36:25.922Z,1.50
2019-05-28T16:38:56.368Z,1.17
2019-05-28T16:41:26.790Z,1.20
2019-05-28T16:43:57.268Z,1.20
2019-05-28T16:46:27.830Z,1.17
2019-05-28T16:48:58.305Z,1.27
2019-05-28T16:51:28.820Z,1.10
2019-05-28T16:54:18.100Z,1.10
2019-05-28T16:56:33.875Z,1.20
2019-05-28T16:59:04.392Z,1.20
2019-05-28T17:01:34.882Z,1.43
2019-05-28T17:04:06.348Z,1.50
2019-05-28T17:06:38.320Z,1.47
2019-05-28T17:09:09.068Z,1.27
2019-05-28T17:11:39.819Z,1.33
2019-05-28T17:14:10.381Z,1.50
2019-05-28T17:16:41.291Z,1.60
2019-05-28T17:19:11.833Z,1.50
2019-05-28T17:21:42.328Z,1.40
2019-05-28T17:24:12.837Z,1.57
2019-05-28T17:26:43.404Z,1.17
2019-05-28T17:29:13.964Z,1.27
2019-05-28T17:31:45.620Z,1.30
2019-05-28T17:34:16.224Z,1.50
2019-05-28T17:36:49.597Z,1.20
2019-05-28T17:39:20.055Z,0.90
2019-05-28T17:41:50.948Z,1.37
2019-05-28T17:44:21.478Z,1.10
2019-05-28T17:46:51.967Z,1.17
2019-05-28T17:49:22.460Z,1.00
2019-05-28T17:51:52.867Z,0.83
2019-05-28T17:54:23.278Z,0.90
2019-05-28T17:56:53.727Z,1.00
2019-05-28T17:59:24.198Z,1.10
2019-05-28T18:01:54.641Z,1.00
2019-05-28T18:04:25.098Z,1.13
2019-05-28T18:06:55.537Z,0.80
2019-05-28T18:09:27.461Z,0.80
2019-05-28T18:11:58.174Z,0.80
2019-05-28T18:14:28.586Z,1.00
2019-05-28T18:16:59.059Z,1.30
2019-05-28T18:19:29.474Z,1.50
2019-05-28T18:21:59.907Z,1.00
2019-05-28T18:24:30.387Z,1.10
2019-05-28T18:27:07.915Z,1.10
2019-05-28T18:29:38.308Z,1.17
2019-05-28T18:32:08.857Z,1.20
2019-05-28T18:34:39.296Z,1.00
2019-05-28T18:37:09.728Z,1.10
2019-05-28T18:39:40.194Z,1.13
2019-05-28T18:42:10.678Z,0.93
2019-05-28T18:44:41.262Z,2.37
2019-05-28T18:47:11.719Z,2.80
2019-05-28T18:49:42.179Z,0.93
2019-05-28T18:52:13.086Z,1.00
2019-05-28T18:54:43.454Z,1.07
2019-05-28T18:57:13.913Z,1.77
2019-05-28T18:59:44.322Z,1.00
2019-05-28T19:02:14.749Z,1.50
2019-05-28T19:04:45.242Z,1.47
2019-05-28T19:07:16.859Z,1.40
2019-05-28T19:09:47.232Z,1.30
2019-05-28T19:12:17.619Z,1.10
2019-05-28T19:14:48.053Z,1.13
2019-05-28T19:17:18.487Z,1.23
2019-05-28T19:19:49.807Z,0.93
2019-05-28T19:22:20.318Z,1.40
2019-05-28T19:24:50.729Z,1.30
2019-05-28T19:27:21.247Z,1.50
2019-05-28T19:29:51.691Z,1.30
2019-05-28T19:32:22.322Z,1.20
2019-05-28T19:34:52.878Z,1.60
2019-05-28T19:37:23.376Z,1.40
2019-05-28T19:39:53.934Z,1.50
2019-05-28T19:42:24.426Z,1.60
2019-05-28T19:44:55.080Z,1.23
2019-05-28T19:47:25.638Z,1.73
2019-05-28T19:49:57.100Z,1.57
2019-05-28T19:52:27.642Z,1.60
2019-05-28T19:54:58.094Z,1.27
2019-05-28T19:57:28.708Z,1.30
2019-05-28T19:59:59.266Z,1.53
2019-05-28T20:02:29.642Z,1.33
2019-05-28T20:04:59.992Z,1.67
2019-05-28T20:07:30.465Z,1.50
2019-05-28T20:10:00.895Z,1.50
2019-05-28T20:12:31.599Z,1.20
2019-05-28T20:15:02.007Z,1.70
2019-05-28T20:17:33.558Z,1.40
2019-05-28T20:20:04.294Z,1.50
2019-05-28T20:22:34.647Z,1.40
2019-05-28T20:25:05.382Z,1.10
2019-05-28T20:27:36.584Z,1.90
2019-05-28T20:30:07.935Z,3.17
2019-05-28T20:32:39.733Z,1.30
2019-05-28T20:35:10.339Z,1.10
2019-05-28T20:37:41.781Z,0.90
2019-05-28T20:40:12.410Z,0.80
2019-05-28T20:42:42.867Z,0.80
2019-05-28T20:45:13.755Z,0.73
2019-05-28T20:47:44.149Z,1.27
2019-05-28T20:50:16.193Z,0.93
2019-05-28T20:52:46.690Z,0.73
2019-05-28T20:55:17.372Z,1.00
2019-05-28T20:57:49.060Z,0.90
2019-05-28T21:00:20.229Z,0.80
2019-05-28T21:02:51.723Z,0.90
2019-05-28T21:05:22.309Z,0.70
2019-05-28T21:07:53.129Z,0.87
2019-05-28T21:10:25.351Z,0.57
2019-05-28T21:12:56.934Z,0.80
2019-05-28T21:15:27.536Z,0.80
2019-05-28T21:17:59.347Z,0.70
2019-05-28T21:20:30.228Z,0.70
2019-05-28T21:23:00.686Z,0.80
2019-05-28T21:25:31.072Z,0.70
2019-05-28T21:28:01.519Z,0.60
2019-05-28T21:30:31.949Z,1.00
2019-05-28T21:33:02.402Z,0.87
2019-05-28T21:35:32.782Z,0.57
2019-05-28T21:38:03.146Z,0.57
2019-05-28T21:40:33.603Z,0.80
2019-05-28T21:43:09.449Z,0.70
2019-05-28T21:45:36.178Z,0.60
2019-05-28T21:48:06.556Z,0.80
2019-05-28T21:50:36.964Z,0.93
2019-05-28T21:53:07.415Z,0.80
2019-05-28T21:55:37.888Z,0.87
2019-05-28T21:58:08.374Z,0.80
2019-05-28T22:00:47.323Z,0.83
2019-05-28T22:03:18.936Z,0.90
2019-05-28T22:05:49.390Z,1.10
2019-05-28T22:08:19.895Z,1.10
2019-05-28T22:10:50.237Z,1.00
2019-05-28T22:13:22.598Z,0.63
2019-05-28T22:15:52.712Z,0.93
2019-05-28T22:18:23.156Z,1.07
2019-05-28T22:20:53.858Z,1.03
2019-05-28T22:23:24.256Z,1.10
2019-05-28T22:25:54.961Z,0.70
2019-05-28T22:28:25.376Z,0.77
2019-05-28T22:30:56.212Z,1.00
2019-05-28T22:33:27.265Z,1.07
2019-05-28T22:35:57.724Z,0.93
2019-05-28T22:38:29.139Z,1.00
2019-05-28T22:41:00.369Z,1.10
2019-05-28T22:43:32.083Z,0.90
2019-05-28T22:46:03.266Z,1.40
2019-05-28T22:48:34.831Z,1.17
2019-05-28T22:51:05.646Z,1.20
2019-05-28T22:53:36.254Z,1.50
2019-05-28T22:56:06.891Z,0.97
2019-05-28T22:58:37.794Z,1.00
2019-05-28T23:01:08.748Z,1.13
2019-05-28T23:03:39.166Z,1.13
2019-05-28T23:06:09.702Z,0.90
2019-05-28T23:08:40.081Z,0.80
2019-05-28T23:11:10.515Z,1.00
2019-05-28T23:13:46.832Z,1.20
2019-05-28T23:16:12.969Z,0.80
2019-05-28T23:18:43.342Z,1.17
2019-05-28T23:21:13.733Z,0.90
2019-05-28T23:23:44.293Z,0.90
2019-05-28T23:26:15.729Z,1.17
2019-05-28T23:28:46.123Z,1.13
2019-05-28T23:31:16.567Z,0.90
2019-05-28T23:33:46.968Z,1.10
2019-05-28T23:36:17.504Z,0.90
2019-05-28T23:38:47.913Z,1.07
2019-05-28T23:41:18.287Z,1.20
2019-05-28T23:44:01.195Z,1.13
2019-05-28T23:46:20.667Z,1.27
2019-05-28T23:48:51.076Z,1.20
2019-05-28T23:51:21.434Z,1.10
2019-05-28T23:53:51.779Z,1.03
2019-05-28T23:56:22.134Z,1.10
2019-05-28T23:58:52.547Z,1.00
